Sea Successc\ — VRS4325 — position and weather

sailwx.info

Track history (hours):
 
Tides and Currents Weather Stations Pressure Air Temp Water Temp Dewpoint Dewpoint Depression Visibility Wind Speed Wind Dir Waves Ship Positions

Sea Successc\

Last reported at 2016-Aug-19 14:33 UTC. Time now 2016-Aug-25 21:56 UTC.
Position N 22°18' E 114°09'.

Length 27 m.

Type: Ship. MMSI: 477995071.

Date/timePositionNaut miles runAvg speedWind from/ knotsBaromVisibWave heightAir tempDewpointWater temp
2016-Aug-19 14:33N 22°18' E 114°09'2 1.6
2016-Aug-19 13:26N 22°18' E 114°08'2 1.0
2016-Aug-19 11:33N 22°17' E 114°10'2 1.7
2016-Aug-19 10:11N 22°18' E 114°07'2 2.9
2016-Aug-19 09:33N 22°18' E 114°09'0 0.3
2016-Aug-19 08:34N 22°18' E 114°09'0 0.1
2016-Aug-19 05:34N 22°17' E 114°10'0 0.0
2016-Aug-19 02:33N 22°17' E 114°10'2 1.4
2016-Aug-19 01:07N 22°18' E 114°07'2 1.3
2016-Aug-18 23:33N 22°17' E 114°10'2 1.7
2016-Aug-18 22:20N 22°18' E 114°07'0 0.0
2016-Aug-18 13:27N 22°18' E 114°07'2 1.1
2016-Aug-18 11:33N 22°17' E 114°10'2 1.5
2016-Aug-18 10:10N 22°18' E 114°07'2 3.4
2016-Aug-18 09:29N 22°19' E 114°09'2 1.8
2016-Aug-18 08:33N 22°17' E 114°09'0 0.1
2016-Aug-18 05:34N 22°17' E 114°10'0 0.0
2016-Aug-18 02:33N 22°17' E 114°10'2 1.4
2016-Aug-18 01:09N 22°18' E 114°08'2 1.2
2016-Aug-17 23:33N 22°17' E 114°10'2 1.7
2016-Aug-17 22:18N 22°18' E 114°07'0 0.0
2016-Aug-17 13:26N 22°18' E 114°07'2 1.1
2016-Aug-17 11:33N 22°17' E 114°10'3 1.9
2016-Aug-17 10:12N 22°17' E 114°07'3 4.0
2016-Aug-17 09:34N 22°17' E 114°10'1 0.8
2016-Aug-17 08:33N 22°18' E 114°09'1 0.3
2016-Aug-17 05:34N 22°17' E 114°10'0 0.0
2016-Aug-17 02:33N 22°17' E 114°10'2 1.4
2016-Aug-17 01:06N 22°18' E 114°07'2 1.3
2016-Aug-16 23:33N 22°17' E 114°10'2 1.7
2016-Aug-16 22:19N 22°18' E 114°07'0 0.0
2016-Aug-16 13:27N 22°18' E 114°07'2 1.1
2016-Aug-16 11:33N 22°17' E 114°10'3 1.9
2016-Aug-16 10:13N 22°17' E 114°07'3 4.0
2016-Aug-16 09:33N 22°19' E 114°09'1 1.4
2016-Aug-16 08:33N 22°18' E 114°09'0 0.1
2016-Aug-16 02:33N 22°17' E 114°10'2 1.1
2016-Aug-16 01:07N 22°18' E 114°08'2 1.0
2016-Aug-15 23:33N 22°17' E 114°10'3 2.1
2016-Aug-15 22:18N 22°18' E 114°07'0 0.0
2016-Aug-15 13:27N 22°18' E 114°07'3 1.3
2016-Aug-15 11:33N 22°17' E 114°10'2 1.8
2016-Aug-15 10:12N 22°17' E 114°07'2 3.7
2016-Aug-15 09:33N 22°17' E 114°10'1 0.9
2016-Aug-15 08:33N 22°18' E 114°09'1 0.1
2016-Aug-15 02:33N 22°17' E 114°10'2 1.3
2016-Aug-15 01:05N 22°18' E 114°08'2 1.2
2016-Aug-14 23:33N 22°17' E 114°10'2 2.0
2016-Aug-14 22:22N 22°18' E 114°07'0 0.0
2016-Aug-14 12:32N 22°18' E 114°07'2 1.1
2016-Aug-14 10:33N 22°17' E 114°10'3 2.0
2016-Aug-14 09:12N 22°17' E 114°07'3 3.5
2016-Aug-14 08:29N 22°17' E 114°09'0 0.0
2016-Aug-14 07:30N 22°17' E 114°09'0 0.0
2016-Aug-14 06:31N 22°17' E 114°09'2 0.8
2016-Aug-14 04:11N 22°18' E 114°07'0 0.8
2016-Aug-14 03:33N 22°17' E 114°08'1 1.0
2016-Aug-14 02:32N 22°17' E 114°07'3 2.5
2016-Aug-14 01:33N 22°18' E 114°09'0 0.0
2016-Aug-14 00:33N 22°18' E 114°09'1 0.9
2016-Aug-13 23:33N 22°17' E 114°09'0 0.0
2016-Aug-13 12:06N 22°17' E 114°09'0 0.0
2016-Aug-13 10:33N 22°17' E 114°09'0 0.0
2016-Aug-13 08:33N 22°17' E 114°09'2 1.7
2016-Aug-13 07:30N 22°17' E 114°08'2 0.9
2016-Aug-13 05:33N 22°17' E 114°09'1 0.5
2016-Aug-13 03:33N 22°18' E 114°09'0 0.1
2016-Aug-13 02:33N 22°18' E 114°09'0 0.0
2016-Aug-11 04:17N 22°18' E 114°09'2 0.8
2016-Aug-11 01:27N 22°17' E 114°07'2 1.3
2016-Aug-10 23:33N 22°17' E 114°10'2 1.8
2016-Aug-10 22:20N 22°17' E 114°07'0 0.0
2016-Aug-10 13:27N 22°17' E 114°07'2 1.2
2016-Aug-10 11:32N 22°17' E 114°10'2 1.3
2016-Aug-10 10:11N 22°18' E 114°08'1 2.1
2016-Aug-10 09:33N 22°18' E 114°09'1 0.8
2016-Aug-10 08:33N 22°17' E 114°10'0 0.0
2016-Aug-10 05:33N 22°17' E 114°10'0 0.0
2016-Aug-10 02:33N 22°17' E 114°10'2 1.4
2016-Aug-10 01:07N 22°18' E 114°08'2 1.3
2016-Aug-09 23:33N 22°17' E 114°10'2 1.5
2016-Aug-09 22:16N 22°17' E 114°08'  
Track history (hours):
 
Tides and Currents Weather Stations Pressure Air Temp Water Temp Dewpoint Dewpoint Depression Visibility Wind Speed Wind Dir Waves Ship Positions

Sea Successc\

Last reported at 2016-Aug-19 14:33 UTC. Time now 2016-Aug-25 21:56 UTC.
Position N 22°18' E 114°09'.

Length 27 m.

Type: Ship. MMSI: 477995071.

Date/timePositionNaut miles runAvg speedWind from/ knotsBaromVisibWave heightAir tempDewpointWater temp
2016-Aug-19 14:33N 22°18' E 114°09'2 1.6
2016-Aug-19 13:26N 22°18' E 114°08'2 1.0
2016-Aug-19 11:33N 22°17' E 114°10'2 1.7
2016-Aug-19 10:11N 22°18' E 114°07'2 2.9
2016-Aug-19 09:33N 22°18' E 114°09'0 0.3
2016-Aug-19 08:34N 22°18' E 114°09'0 0.1
2016-Aug-19 05:34N 22°17' E 114°10'0 0.0
2016-Aug-19 02:33N 22°17' E 114°10'2 1.4
2016-Aug-19 01:07N 22°18' E 114°07'2 1.3
2016-Aug-18 23:33N 22°17' E 114°10'2 1.7
2016-Aug-18 22:20N 22°18' E 114°07'0 0.0
2016-Aug-18 13:27N 22°18' E 114°07'2 1.1
2016-Aug-18 11:33N 22°17' E 114°10'2 1.5
2016-Aug-18 10:10N 22°18' E 114°07'2 3.4
2016-Aug-18 09:29N 22°19' E 114°09'2 1.8
2016-Aug-18 08:33N 22°17' E 114°09'0 0.1
2016-Aug-18 05:34N 22°17' E 114°10'0 0.0
2016-Aug-18 02:33N 22°17' E 114°10'2 1.4
2016-Aug-18 01:09N 22°18' E 114°08'2 1.2
2016-Aug-17 23:33N 22°17' E 114°10'2 1.7
2016-Aug-17 22:18N 22°18' E 114°07'0 0.0
2016-Aug-17 13:26N 22°18' E 114°07'2 1.1
2016-Aug-17 11:33N 22°17' E 114°10'3 1.9
2016-Aug-17 10:12N 22°17' E 114°07'3 4.0
2016-Aug-17 09:34N 22°17' E 114°10'1 0.8
2016-Aug-17 08:33N 22°18' E 114°09'1 0.3
2016-Aug-17 05:34N 22°17' E 114°10'0 0.0
2016-Aug-17 02:33N 22°17' E 114°10'2 1.4
2016-Aug-17 01:06N 22°18' E 114°07'2 1.3
2016-Aug-16 23:33N 22°17' E 114°10'2 1.7
2016-Aug-16 22:19N 22°18' E 114°07'0 0.0
2016-Aug-16 13:27N 22°18' E 114°07'2 1.1
2016-Aug-16 11:33N 22°17' E 114°10'3 1.9
2016-Aug-16 10:13N 22°17' E 114°07'3 4.0
2016-Aug-16 09:33N 22°19' E 114°09'1 1.4
2016-Aug-16 08:33N 22°18' E 114°09'0 0.1
2016-Aug-16 02:33N 22°17' E 114°10'2 1.1
2016-Aug-16 01:07N 22°18' E 114°08'2 1.0
2016-Aug-15 23:33N 22°17' E 114°10'3 2.1
2016-Aug-15 22:18N 22°18' E 114°07'0 0.0
2016-Aug-15 13:27N 22°18' E 114°07'3 1.3
2016-Aug-15 11:33N 22°17' E 114°10'2 1.8
2016-Aug-15 10:12N 22°17' E 114°07'2 3.7
2016-Aug-15 09:33N 22°17' E 114°10'1 0.9
2016-Aug-15 08:33N 22°18' E 114°09'1 0.1
2016-Aug-15 02:33N 22°17' E 114°10'2 1.3
2016-Aug-15 01:05N 22°18' E 114°08'2 1.2
2016-Aug-14 23:33N 22°17' E 114°10'2 2.0
2016-Aug-14 22:22N 22°18' E 114°07'0 0.0
2016-Aug-14 12:32N 22°18' E 114°07'2 1.1
2016-Aug-14 10:33N 22°17' E 114°10'3 2.0
2016-Aug-14 09:12N 22°17' E 114°07'3 3.5
2016-Aug-14 08:29N 22°17' E 114°09'0 0.0
2016-Aug-14 07:30N 22°17' E 114°09'0 0.0
2016-Aug-14 06:31N 22°17' E 114°09'2 0.8
2016-Aug-14 04:11N 22°18' E 114°07'0 0.8
2016-Aug-14 03:33N 22°17' E 114°08'1 1.0
2016-Aug-14 02:32N 22°17' E 114°07'3 2.5
2016-Aug-14 01:33N 22°18' E 114°09'0 0.0
2016-Aug-14 00:33N 22°18' E 114°09'1 0.9
2016-Aug-13 23:33N 22°17' E 114°09'0 0.0
2016-Aug-13 12:06N 22°17' E 114°09'0 0.0
2016-Aug-13 10:33N 22°17' E 114°09'0 0.0
2016-Aug-13 08:33N 22°17' E 114°09'2 1.7
2016-Aug-13 07:30N 22°17' E 114°08'2 0.9
2016-Aug-13 05:33N 22°17' E 114°09'1 0.5
2016-Aug-13 03:33N 22°18' E 114°09'0 0.1
2016-Aug-13 02:33N 22°18' E 114°09'0 0.0
2016-Aug-11 04:17N 22°18' E 114°09'2 0.8
2016-Aug-11 01:27N 22°17' E 114°07'2 1.3
2016-Aug-10 23:33N 22°17' E 114°10'2 1.8
2016-Aug-10 22:20N 22°17' E 114°07'0 0.0
2016-Aug-10 13:27N 22°17' E 114°07'2 1.2
2016-Aug-10 11:32N 22°17' E 114°10'2 1.3
2016-Aug-10 10:11N 22°18' E 114°08'1 2.1
2016-Aug-10 09:33N 22°18' E 114°09'1 0.8
2016-Aug-10 08:33N 22°17' E 114°10'0 0.0
2016-Aug-10 05:33N 22°17' E 114°10'0 0.0
2016-Aug-10 02:33N 22°17' E 114°10'2 1.4
2016-Aug-10 01:07N 22°18' E 114°08'2 1.3
2016-Aug-09 23:33N 22°17' E 114°10'2 1.5
2016-Aug-09 22:16N 22°17' E 114°08'  

Dump ship's entire track history